createdAt,value
2019-05-09T00:01:47.899Z,10.81
2019-05-09T00:04:15.423Z,11.18
2019-05-09T00:06:43.161Z,11.09
2019-05-09T00:09:10.327Z,11.02
2019-05-09T00:11:39.425Z,10.71
2019-05-09T00:14:07.961Z,10.85
2019-05-09T00:16:35.453Z,11.01
2019-05-09T00:19:03.437Z,11.08
2019-05-09T00:21:33.272Z,11.01
2019-05-09T00:24:00.057Z,10.84
2019-05-09T00:26:27.538Z,11.15
2019-05-09T00:28:55.468Z,11.22
2019-05-09T00:31:37.814Z,11.32
2019-05-09T00:34:05.322Z,11.11
2019-05-09T00:36:33.460Z,10.91
2019-05-09T00:39:00.187Z,11.39
2019-05-09T00:41:27.648Z,10.87
2019-05-09T00:43:55.085Z,11.09
2019-05-09T00:46:23.626Z,11.07
2019-05-09T00:48:55.309Z,11.10
2019-05-09T00:51:23.394Z,11.04
2019-05-09T00:53:50.274Z,10.81
2019-05-09T00:56:17.697Z,10.93
2019-05-09T00:58:45.209Z,10.69
2019-05-09T01:01:13.305Z,10.85
2019-05-09T01:03:40.095Z,10.89
2019-05-09T01:06:07.523Z,10.52
2019-05-09T01:08:35.020Z,10.61
2019-05-09T01:11:11.740Z,10.80
2019-05-09T01:13:30.470Z,10.57
2019-05-09T01:15:57.934Z,10.76
2019-05-09T01:18:25.352Z,10.57
2019-05-09T01:20:53.158Z,10.31
2019-05-09T01:23:20.883Z,10.56
2019-05-09T01:25:48.398Z,10.66
2019-05-09T01:28:15.845Z,10.62
2019-05-09T01:30:43.859Z,10.70
2019-05-09T01:33:10.809Z,10.58
2019-05-09T01:35:38.261Z,10.71
2019-05-09T01:38:05.705Z,10.61
2019-05-09T01:40:33.257Z,10.66
2019-05-09T01:43:01.019Z,10.69
2019-05-09T01:45:28.496Z,10.77
2019-05-09T01:47:55.911Z,10.97
2019-05-09T01:50:23.452Z,10.97
2019-05-09T01:52:50.821Z,10.90
2019-05-09T01:55:18.274Z,10.79
2019-05-09T01:57:47.907Z,10.26
2019-05-09T02:00:13.305Z,10.67
2019-05-09T02:02:40.632Z,10.56
2019-05-09T02:05:08.071Z,10.33
2019-05-09T02:07:35.508Z,10.72
2019-05-09T02:10:03.493Z,10.12
2019-05-09T02:12:30.421Z,10.13
2019-05-09T02:15:00.805Z,10.64
2019-05-09T02:17:30.053Z,10.10
2019-05-09T02:19:57.495Z,10.40
2019-05-09T02:22:30.488Z,10.57
2019-05-09T02:24:57.980Z,10.32
2019-05-09T02:27:25.406Z,10.23
2019-05-09T02:29:54.433Z,10.31
2019-05-09T02:32:23.739Z,10.59
2019-05-09T02:34:48.270Z,10.46
2019-05-09T02:37:18.576Z,10.06
2019-05-09T02:39:43.214Z,10.02
2019-05-09T02:42:13.943Z,10.51
2019-05-09T02:44:39.532Z,10.46
2019-05-09T02:47:08.747Z,10.69
2019-05-09T02:49:33.848Z,10.69
2019-05-09T02:52:02.525Z,10.10
2019-05-09T02:54:30.200Z,10.51
2019-05-09T02:56:58.233Z,10.26
2019-05-09T02:59:29.725Z,10.61
2019-05-09T03:02:09.586Z,10.42
2019-05-09T03:04:38.919Z,10.16
2019-05-09T03:07:03.608Z,10.44
2019-05-09T03:09:31.047Z,10.61
2019-05-09T03:11:59.255Z,10.41
2019-05-09T03:14:28.648Z,10.74
2019-05-09T03:16:53.441Z,10.63
2019-05-09T03:19:20.892Z,10.76
2019-05-09T03:21:49.707Z,10.37
2019-05-09T03:24:18.447Z,10.74
2019-05-09T03:26:44.690Z,10.72
2019-05-09T03:29:12.974Z,10.40
2019-05-09T03:31:40.441Z,10.64
2019-05-09T03:34:09.470Z,10.26
2019-05-09T03:36:35.340Z,9.98
2019-05-09T03:39:03.270Z,9.96
2019-05-09T03:41:30.704Z,9.93
2019-05-09T03:43:58.699Z,10.02
2019-05-09T03:46:28.020Z,10.32
2019-05-09T03:49:03.261Z,10.35
2019-05-09T03:51:30.723Z,10.07
2019-05-09T03:53:58.188Z,10.15
2019-05-09T03:56:37.473Z,10.40
2019-05-09T03:59:03.694Z,10.21
2019-05-09T04:01:31.174Z,10.21
2019-05-09T04:03:58.637Z,10.44
2019-05-09T04:06:28.148Z,10.61
2019-05-09T04:08:54.003Z,10.74
2019-05-09T04:11:21.029Z,10.78
2019-05-09T04:13:48.481Z,10.72
2019-05-09T04:16:18.844Z,10.51
2019-05-09T04:18:43.403Z,10.40
2019-05-09T04:21:10.850Z,10.42
2019-05-09T04:23:38.319Z,10.20
2019-05-09T04:26:07.548Z,10.57
2019-05-09T04:28:34.201Z,10.66
2019-05-09T04:31:01.636Z,10.60
2019-05-09T04:33:29.067Z,10.38
2019-05-09T04:35:57.958Z,10.46
2019-05-09T04:38:23.970Z,10.58
2019-05-09T04:40:51.421Z,10.47
2019-05-09T04:43:26.911Z,10.43
2019-05-09T04:45:49.148Z,10.55
2019-05-09T04:48:24.018Z,10.53
2019-05-09T04:50:49.754Z,10.48
2019-05-09T04:53:18.316Z,10.62
2019-05-09T04:55:44.706Z,10.64
2019-05-09T04:58:12.119Z,10.17
2019-05-09T05:00:57.251Z,10.20
2019-05-09T05:03:24.051Z,10.07
2019-05-09T05:05:51.509Z,10.25
2019-05-09T05:08:18.948Z,10.49
2019-05-09T05:10:47.754Z,10.49
2019-05-09T05:13:25.621Z,10.64
2019-05-09T05:15:41.352Z,10.13
2019-05-09T05:18:08.798Z,9.92
2019-05-09T05:20:37.985Z,10.29
2019-05-09T05:23:03.720Z,10.46
2019-05-09T05:25:32.546Z,10.61
2019-05-09T05:28:00.057Z,10.64
2019-05-09T05:30:28.410Z,10.57
2019-05-09T05:32:57.682Z,10.57
2019-05-09T05:35:23.246Z,10.41
2019-05-09T05:37:52.865Z,10.33
2019-05-09T05:40:20.719Z,10.35
2019-05-09T05:42:48.153Z,10.47
2019-05-09T05:45:17.971Z,10.42
2019-05-09T05:47:43.054Z,10.65
2019-05-09T05:50:10.512Z,10.61
2019-05-09T05:52:37.928Z,10.76
2019-05-09T05:55:07.566Z,10.79
2019-05-09T05:57:33.525Z,10.66
2019-05-09T06:00:01.022Z,10.89
2019-05-09T06:02:28.461Z,10.90
2019-05-09T06:04:57.918Z,11.07
2019-05-09T06:07:24.806Z,10.95
2019-05-09T06:09:52.287Z,11.04
2019-05-09T06:12:19.726Z,10.76
2019-05-09T06:14:48.111Z,10.69
2019-05-09T06:17:17.930Z,10.99
2019-05-09T06:19:43.661Z,10.68
2019-05-09T06:22:11.099Z,10.75
2019-05-09T06:24:38.950Z,11.02
2019-05-09T06:27:09.835Z,11.14
2019-05-09T06:29:33.540Z,11.12
2019-05-09T06:32:01.110Z,11.13
2019-05-09T06:34:28.603Z,11.34
2019-05-09T06:36:58.528Z,11.25
2019-05-09T06:39:23.506Z,11.28
2019-05-09T06:41:51.720Z,11.03
2019-05-09T06:44:33.009Z,11.09
2019-05-09T06:47:00.462Z,11.41
2019-05-09T06:49:31.595Z,11.57
2019-05-09T06:51:58.032Z,11.53
2019-05-09T06:54:24.445Z,11.46
2019-05-09T06:56:51.925Z,11.68
2019-05-09T06:59:19.374Z,11.53
2019-05-09T07:02:02.518Z,11.52
2019-05-09T07:04:38.081Z,11.73
2019-05-09T07:07:19.375Z,11.42
2019-05-09T07:09:47.974Z,11.58
2019-05-09T07:12:14.346Z,11.44
2019-05-09T07:14:42.081Z,11.64
2019-05-09T07:17:09.235Z,11.77
2019-05-09T07:19:38.366Z,11.62
2019-05-09T07:22:14.115Z,11.42
2019-05-09T07:24:48.070Z,11.68
2019-05-09T07:27:14.641Z,11.82
2019-05-09T07:29:42.084Z,11.84
2019-05-09T07:32:14.941Z,11.82
2019-05-09T07:34:44.825Z,11.90
2019-05-09T07:37:12.301Z,12.08
2019-05-09T07:39:39.731Z,12.12
2019-05-09T07:42:07.801Z,12.13
2019-05-09T07:44:46.189Z,12.21
2019-05-09T07:47:02.155Z,12.22
2019-05-09T07:49:29.603Z,12.42
2019-05-09T07:51:59.093Z,12.38
2019-05-09T07:54:25.721Z,12.39
2019-05-09T07:56:52.022Z,12.37
2019-05-09T07:59:19.452Z,12.49
2019-05-09T08:01:48.731Z,12.46
2019-05-09T08:04:14.345Z,12.39
2019-05-09T08:06:41.785Z,12.23
2019-05-09T08:09:09.249Z,12.34
2019-05-09T08:11:37.664Z,12.57
2019-05-09T08:16:27.927Z,12.97
2019-05-09T08:18:54.758Z,13.17
2019-05-09T08:21:22.218Z,13.24
2019-05-09T08:23:49.678Z,13.18
2019-05-09T08:26:18.831Z,12.85
2019-05-09T08:28:44.646Z,12.82
2019-05-09T08:31:12.159Z,12.70
2019-05-09T08:33:39.646Z,12.83
2019-05-09T08:36:08.621Z,13.10
2019-05-09T08:38:34.565Z,13.21
2019-05-09T08:41:09.051Z,13.34
2019-05-09T08:43:34.342Z,13.32
2019-05-09T08:46:01.767Z,13.43
2019-05-09T08:48:29.227Z,13.59
2019-05-09T08:50:58.260Z,13.14
2019-05-09T08:53:24.152Z,13.01
2019-05-09T08:55:51.624Z,13.27
2019-05-09T08:58:19.864Z,13.27
2019-05-09T09:00:49.065Z,13.27
2019-05-09T09:03:14.439Z,13.54
2019-05-09T09:05:43.385Z,13.48
2019-05-09T09:08:09.365Z,13.60
2019-05-09T09:10:38.570Z,13.86
2019-05-09T09:13:04.260Z,13.65
2019-05-09T09:15:56.116Z,13.91
2019-05-09T09:17:59.211Z,14.10
2019-05-09T09:20:28.749Z,14.23
2019-05-09T09:22:54.298Z,14.30
2019-05-09T09:25:21.717Z,14.41
2019-05-09T09:27:51.111Z,14.66
2019-05-09T09:30:24.517Z,14.71
2019-05-09T09:32:47.619Z,14.69
2019-05-09T09:35:12.456Z,14.46
2019-05-09T09:37:48.588Z,14.69
2019-05-09T09:40:08.673Z,14.63
2019-05-09T09:42:34.856Z,14.61
2019-05-09T09:45:02.335Z,14.36
2019-05-09T09:47:29.795Z,14.39
2019-05-09T09:49:59.493Z,14.64
2019-05-09T09:52:24.721Z,14.35
2019-05-09T09:54:52.177Z,14.53
2019-05-09T09:57:19.599Z,14.50
2019-05-09T09:59:48.581Z,14.72
2019-05-09T10:02:15.415Z,14.67
2019-05-09T10:04:42.869Z,14.57
2019-05-09T10:07:10.287Z,14.63
2019-05-09T10:09:37.749Z,14.64
2019-05-09T10:12:05.213Z,14.76
2019-05-09T10:14:32.677Z,14.78
2019-05-09T10:17:21.491Z,14.81
2019-05-09T10:19:51.349Z,14.90
2019-05-09T10:22:27.346Z,14.88
2019-05-09T10:24:54.862Z,14.67
2019-05-09T10:27:22.340Z,14.70
2019-05-09T10:29:49.880Z,14.69
2019-05-09T10:32:18.238Z,14.18
2019-05-09T10:34:44.964Z,14.51
2019-05-09T10:37:12.407Z,14.62
2019-05-09T10:39:39.846Z,14.67
2019-05-09T10:42:22.175Z,14.88
2019-05-09T10:44:49.642Z,14.90
2019-05-09T10:47:22.577Z,15.03
2019-05-09T10:49:50.714Z,15.04
2019-05-09T10:52:19.053Z,14.86
2019-05-09T10:54:46.524Z,15.02
2019-05-09T10:57:13.996Z,15.04
2019-05-09T10:59:41.450Z,15.23
2019-05-09T11:02:24.436Z,14.81
2019-05-09T11:04:51.875Z,14.71
2019-05-09T11:07:19.313Z,14.50
2019-05-09T11:09:48.025Z,14.87
2019-05-09T11:12:14.249Z,14.88
2019-05-09T11:14:41.674Z,15.12
2019-05-09T11:17:17.561Z,14.92
2019-05-09T11:19:36.586Z,14.94
2019-05-09T11:22:04.067Z,14.85
2019-05-09T11:24:45.359Z,15.10
2019-05-09T11:26:59.050Z,15.04
2019-05-09T11:29:28.149Z,14.82
2019-05-09T11:31:53.970Z,14.98
2019-05-09T11:34:21.962Z,15.22
2019-05-09T11:36:50.137Z,14.85
2019-05-09T11:39:35.197Z,14.76
2019-05-09T11:41:45.064Z,14.77
2019-05-09T11:44:12.529Z,15.08
2019-05-09T11:46:39.965Z,15.03
2019-05-09T11:49:08.358Z,15.33
2019-05-09T11:51:34.946Z,15.52
2019-05-09T11:54:02.398Z,15.44
2019-05-09T11:56:29.828Z,15.62
2019-05-09T11:58:57.896Z,15.70
2019-05-09T12:01:24.877Z,15.16
2019-05-09T12:03:52.642Z,15.02
2019-05-09T12:06:20.671Z,15.45
2019-05-09T12:08:48.392Z,15.59
2019-05-09T12:11:18.233Z,15.68
2019-05-09T12:13:42.913Z,15.70
2019-05-09T12:16:10.374Z,15.67
2019-05-09T12:18:37.926Z,15.72
2019-05-09T12:21:05.654Z,15.43
2019-05-09T12:23:33.094Z,15.33
2019-05-09T12:26:00.525Z,15.68
2019-05-09T12:28:28.154Z,15.72
2019-05-09T12:30:55.581Z,15.65
2019-05-09T12:33:23.084Z,15.58
2019-05-09T12:35:51.242Z,15.67
2019-05-09T12:38:18.714Z,15.74
2019-05-09T12:40:48.159Z,15.85
2019-05-09T12:43:13.716Z,15.84
2019-05-09T12:45:41.143Z,15.55
2019-05-09T12:48:14.808Z,15.35
2019-05-09T12:50:38.556Z,15.79
2019-05-09T12:53:03.514Z,15.36
2019-05-09T12:55:30.978Z,15.12
2019-05-09T12:57:59.445Z,15.19
2019-05-09T13:00:28.344Z,15.52
2019-05-09T13:02:53.427Z,15.34
2019-05-09T13:05:21.850Z,15.33
2019-05-09T13:07:49.307Z,15.52
2019-05-09T13:10:19.453Z,15.23
2019-05-09T13:12:44.273Z,15.62
2019-05-09T13:15:11.778Z,15.53
2019-05-09T13:17:40.124Z,15.54
2019-05-09T13:20:08.053Z,15.07
2019-05-09T13:22:35.031Z,14.97
2019-05-09T13:25:03.100Z,15.13
2019-05-09T13:27:29.944Z,15.09
2019-05-09T13:29:57.444Z,15.01
2019-05-09T13:32:24.904Z,15.16
2019-05-09T13:34:52.534Z,15.51
2019-05-09T13:37:20.046Z,15.49
2019-05-09T13:39:47.706Z,15.51
2019-05-09T13:42:15.068Z,15.44
2019-05-09T13:44:42.559Z,15.57
2019-05-09T13:47:11.052Z,15.38
2019-05-09T13:49:39.489Z,15.80
2019-05-09T13:52:05.322Z,15.48
2019-05-09T13:54:32.415Z,15.59
2019-05-09T13:57:01.423Z,15.75
2019-05-09T13:59:30.031Z,15.40
2019-05-09T14:01:54.914Z,15.32
2019-05-09T14:04:23.105Z,15.76
2019-05-09T14:06:50.585Z,15.64
2019-05-09T14:09:19.904Z,15.41
2019-05-09T14:11:47.954Z,15.38
2019-05-09T14:14:14.872Z,15.75
2019-05-09T14:16:42.321Z,15.36
2019-05-09T14:19:30.050Z,15.26
2019-05-09T14:21:37.294Z,15.01
2019-05-09T14:24:14.091Z,15.05
2019-05-09T14:26:32.328Z,15.13
2019-05-09T14:28:59.813Z,15.27
2019-05-09T14:31:32.108Z,15.30
2019-05-09T14:33:54.864Z,15.49
2019-05-09T14:36:22.383Z,15.36
2019-05-09T14:38:49.947Z,15.57
2019-05-09T14:41:19.240Z,15.89
2019-05-09T14:43:44.974Z,16.02
2019-05-09T14:46:12.449Z,16.15
2019-05-09T14:48:39.942Z,16.08
2019-05-09T14:51:07.791Z,16.07
2019-05-09T14:53:34.926Z,16.13
2019-05-09T14:56:02.441Z,16.19
2019-05-09T14:58:29.905Z,16.15
2019-05-09T15:01:00.620Z,16.22
2019-05-09T15:03:24.871Z,16.19
2019-05-09T15:05:52.629Z,16.26
2019-05-09T15:08:20.975Z,16.59
2019-05-09T15:10:48.439Z,16.31
2019-05-09T15:13:15.887Z,15.97
2019-05-09T15:15:43.354Z,15.98
2019-05-09T15:18:10.783Z,16.29
2019-05-09T15:20:38.395Z,16.66
2019-05-09T15:23:05.840Z,16.81
2019-05-09T15:25:33.316Z,16.32
2019-05-09T15:28:00.803Z,16.39
2019-05-09T15:30:28.845Z,16.11
2019-05-09T15:32:55.745Z,16.30
2019-05-09T15:35:23.170Z,15.75
2019-05-09T15:37:50.627Z,15.78
2019-05-09T15:40:18.085Z,16.05
2019-05-09T15:42:47.716Z,16.28
2019-05-09T15:45:13.088Z,16.72
2019-05-09T15:47:40.555Z,17.10
2019-05-09T15:50:19.287Z,17.03
2019-05-09T15:52:38.062Z,17.31
2019-05-09T15:55:03.141Z,17.00
2019-05-09T15:57:30.639Z,16.97
2019-05-09T15:59:58.900Z,17.00
2019-05-09T16:02:28.167Z,17.13
2019-05-09T16:04:53.102Z,17.58
2019-05-09T16:07:20.552Z,16.82
2019-05-09T16:09:48.388Z,17.13
2019-05-09T16:12:15.521Z,17.41
2019-05-09T16:14:42.934Z,17.43
2019-05-09T16:17:10.453Z,16.79
2019-05-09T16:19:38.038Z,16.38
2019-05-09T16:22:07.725Z,16.85
2019-05-09T16:24:32.863Z,16.62
2019-05-09T16:27:00.332Z,16.40
2019-05-09T16:29:29.284Z,16.91
2019-05-09T16:31:58.006Z,17.36
2019-05-09T16:34:23.543Z,17.26
2019-05-09T16:36:50.990Z,16.56
2019-05-09T16:39:18.438Z,16.47
2019-05-09T16:41:48.057Z,17.10
2019-05-09T16:44:13.408Z,17.23
2019-05-09T16:46:40.831Z,17.16
2019-05-09T16:49:11.522Z,17.15
2019-05-09T16:51:37.799Z,17.02
2019-05-09T16:54:04.119Z,17.28
2019-05-09T16:56:31.560Z,17.31
2019-05-09T16:58:59.016Z,16.83
2019-05-09T17:01:28.395Z,17.01
2019-05-09T17:03:54.295Z,16.97
2019-05-09T17:06:21.745Z,16.74
2019-05-09T17:08:49.340Z,16.74
2019-05-09T17:11:19.157Z,16.81
2019-05-09T17:13:44.329Z,16.82
2019-05-09T17:16:11.794Z,16.39
2019-05-09T17:18:39.271Z,16.46
2019-05-09T17:21:18.490Z,16.57
2019-05-09T17:23:38.490Z,16.64
2019-05-09T17:26:05.330Z,16.47
2019-05-09T17:28:33.514Z,16.46
2019-05-09T17:31:01.000Z,16.61
2019-05-09T17:33:28.851Z,16.37
2019-05-09T17:35:57.767Z,16.17
2019-05-09T17:38:23.378Z,16.38
2019-05-09T17:40:51.813Z,16.45
2019-05-09T17:43:19.293Z,16.48
2019-05-09T17:45:47.835Z,16.44
2019-05-09T17:48:14.205Z,16.26
2019-05-09T17:50:41.647Z,16.00
2019-05-09T17:53:09.097Z,16.00
2019-05-09T17:55:38.062Z,15.91
2019-05-09T17:58:04.070Z,15.95
2019-05-09T18:00:31.486Z,15.83
2019-05-09T18:02:58.931Z,16.05
2019-05-09T18:05:26.396Z,16.11
2019-05-09T18:07:53.948Z,16.14
2019-05-09T18:10:21.415Z,15.54
2019-05-09T18:12:48.847Z,15.92
2019-05-09T18:15:18.767Z,15.62
2019-05-09T18:17:47.872Z,15.76
2019-05-09T18:20:13.399Z,15.52
2019-05-09T18:22:40.843Z,15.74
2019-05-09T18:25:08.433Z,15.61
2019-05-09T18:27:37.750Z,15.36
2019-05-09T18:30:03.226Z,15.54
2019-05-09T18:32:30.698Z,15.28
2019-05-09T18:35:19.063Z,15.63
2019-05-09T18:37:48.140Z,15.52
2019-05-09T18:40:14.055Z,15.40
2019-05-09T18:42:41.521Z,15.59
2019-05-09T18:45:08.958Z,15.30
2019-05-09T18:47:36.434Z,15.81
2019-05-09T18:50:04.806Z,15.99
2019-05-09T18:52:32.249Z,15.93
2019-05-09T18:54:59.719Z,16.09
2019-05-09T18:57:27.163Z,16.19
2019-05-09T18:59:54.606Z,16.15
2019-05-09T19:02:22.229Z,16.28
2019-05-09T19:04:49.703Z,16.28
2019-05-09T19:07:22.199Z,16.20
2019-05-09T19:09:44.649Z,16.27
2019-05-09T19:12:12.105Z,16.07
2019-05-09T19:14:39.552Z,16.06
2019-05-09T19:17:23.581Z,16.20
2019-05-09T19:20:06.695Z,15.94
2019-05-09T19:22:34.177Z,15.42
2019-05-09T19:25:01.626Z,15.32
2019-05-09T19:27:29.511Z,14.65
2019-05-09T19:29:56.966Z,14.51
2019-05-09T19:32:24.438Z,14.29
2019-05-09T19:34:51.909Z,14.27
2019-05-09T19:37:19.341Z,14.04
2019-05-09T19:39:46.835Z,14.00
2019-05-09T19:42:17.289Z,13.65
2019-05-09T19:44:44.732Z,13.39
2019-05-09T19:47:12.197Z,13.35
2019-05-09T19:49:39.646Z,13.34
2019-05-09T19:52:07.094Z,13.09
2019-05-09T19:54:34.600Z,13.28
2019-05-09T19:57:02.026Z,12.94
2019-05-09T19:59:30.137Z,13.32
2019-05-09T20:01:57.607Z,13.40
2019-05-09T20:04:25.125Z,13.38
2019-05-09T20:06:52.595Z,13.54
2019-05-09T20:09:20.403Z,13.72
2019-05-09T20:11:48.776Z,13.31
2019-05-09T20:14:16.683Z,13.19
2019-05-09T20:16:48.485Z,13.11
2019-05-09T20:19:15.939Z,12.98
2019-05-09T20:21:43.394Z,13.29
2019-05-09T20:24:10.879Z,13.12
2019-05-09T20:26:38.369Z,12.68
2019-05-09T20:29:05.894Z,12.67
2019-05-09T20:31:33.407Z,12.46
2019-05-09T20:34:00.930Z,12.20
2019-05-09T20:36:28.445Z,12.45
2019-05-09T20:38:55.890Z,12.21
2019-05-09T20:41:23.343Z,12.31
2019-05-09T20:43:50.795Z,12.28
2019-05-09T20:46:18.221Z,12.14
2019-05-09T20:48:45.668Z,12.09
2019-05-09T20:51:13.098Z,12.24
2019-05-09T20:53:40.519Z,12.27
2019-05-09T20:56:07.999Z,12.54
2019-05-09T20:58:35.432Z,12.54
2019-05-09T21:01:03.058Z,12.37
2019-05-09T21:03:30.538Z,12.33
2019-05-09T21:05:57.992Z,12.19
2019-05-09T21:08:25.413Z,11.94
2019-05-09T21:10:52.955Z,12.09
2019-05-09T21:13:20.574Z,12.02
2019-05-09T21:15:48.472Z,11.80
2019-05-09T21:18:15.926Z,11.56
2019-05-09T21:20:43.380Z,11.67
2019-05-09T21:23:23.943Z,12.06
2019-05-09T21:25:38.327Z,11.88
2019-05-09T21:28:05.789Z,11.95
2019-05-09T21:30:33.213Z,12.05
2019-05-09T21:33:00.637Z,12.12
2019-05-09T21:35:28.094Z,11.84
2019-05-09T21:37:55.549Z,12.07
2019-05-09T21:40:23.033Z,12.00
2019-05-09T21:42:50.473Z,12.42
2019-05-09T21:45:17.934Z,12.15
2019-05-09T21:47:45.393Z,12.29
2019-05-09T21:50:12.851Z,11.83
2019-05-09T21:52:40.271Z,11.78
2019-05-09T21:55:07.756Z,11.98
2019-05-09T21:57:35.190Z,11.74
2019-05-09T22:00:02.658Z,11.75
2019-05-09T22:02:30.144Z,11.54
2019-05-09T22:04:57.580Z,11.71
2019-05-09T22:07:25.065Z,11.60
2019-05-09T22:09:52.517Z,11.41
2019-05-09T22:12:21.012Z,11.48
2019-05-09T22:14:48.488Z,11.62
2019-05-09T22:17:18.470Z,11.49
2019-05-09T22:19:45.896Z,11.66
2019-05-09T22:22:13.374Z,11.52
2019-05-09T22:24:40.811Z,11.71
2019-05-09T22:27:08.259Z,11.73
2019-05-09T22:29:35.698Z,11.75
2019-05-09T22:32:03.218Z,11.47
2019-05-09T22:34:30.771Z,11.67
2019-05-09T22:36:58.267Z,11.46
2019-05-09T22:39:25.710Z,11.62
2019-05-09T22:41:53.212Z,11.48
2019-05-09T22:44:21.029Z,11.57
2019-05-09T22:46:48.478Z,11.57
2019-05-09T22:49:15.940Z,11.44
2019-05-09T22:51:43.362Z,11.45
2019-05-09T22:54:13.007Z,11.46
2019-05-09T22:56:38.305Z,11.31
2019-05-09T22:59:05.785Z,11.23
2019-05-09T23:01:33.868Z,11.37
2019-05-09T23:04:01.325Z,11.37
2019-05-09T23:06:28.797Z,11.48
2019-05-09T23:08:56.267Z,11.45
2019-05-09T23:11:23.704Z,11.58
2019-05-09T23:13:52.115Z,11.32
2019-05-09T23:16:20.260Z,11.53
2019-05-09T23:18:47.721Z,11.34
2019-05-09T23:21:15.190Z,11.20
2019-05-09T23:23:42.666Z,11.39
2019-05-09T23:26:10.112Z,11.29
2019-05-09T23:28:37.622Z,11.05
2019-05-09T23:31:05.081Z,11.05
2019-05-09T23:33:32.533Z,10.93
2019-05-09T23:35:59.979Z,10.97
2019-05-09T23:38:27.442Z,10.94
2019-05-09T23:40:54.876Z,11.10
2019-05-09T23:43:22.367Z,11.14
2019-05-09T23:45:49.848Z,10.93
2019-05-09T23:48:17.325Z,11.02
2019-05-09T23:50:44.829Z,10.94
2019-05-09T23:53:12.417Z,10.97
2019-05-09T23:55:45.515Z,10.99
2019-05-09T23:58:18.521Z,11.13
